Columbus, Georgia
Current Conditions -  °F | °C
As of 4:51 AM on Thursday 23 Oct 2014 (Local Time) from KCSG Reporting Station
Clear Clear  
Wind Chill:   Ceiling: Unl
Heat Index:   Visibility: 10mi
Dew Point:   Wind: 0mph
Humidity: 83%   Direction: NA
Pressure: 30.07"   Gusts: NA
Location:  32.51°N, 84.93°W
Report Text: KCSG 230851Z AUTO 00000KT 10SM CLR 08/06 A3007 RMK AO2 SLP181 T00830056 58004
Loading
Personal Weather Stations






























Interactive Weather Map New forecast layout! Learn more

10-Day Weather Forecast

Advertisements
Track Severe Weather on mobile